createdAt,value
2022-08-03T00:00:58.012Z,7.40
2022-08-03T00:11:04.444Z,6.40
2022-08-03T00:21:10.546Z,6.90
2022-08-03T00:31:16.298Z,10.60
2022-08-03T00:41:22.122Z,9.20
2022-08-03T00:51:28.220Z,9.00
2022-08-03T01:01:34.105Z,7.80
2022-08-03T01:12:00.165Z,8.10
2022-08-03T01:22:19.193Z,8.00
2022-08-03T01:33:02.225Z,8.80
2022-08-03T01:43:05.998Z,9.30
2022-08-03T01:53:14.487Z,8.10
2022-08-03T02:03:22.633Z,7.90
2022-08-03T02:13:30.282Z,8.20
2022-08-03T02:23:36.205Z,8.60
2022-08-03T02:33:48.163Z,9.40
2022-08-03T02:44:05.717Z,8.60
2022-08-03T02:54:16.420Z,10.40
2022-08-03T03:04:22.656Z,10.70
2022-08-03T03:14:35.054Z,13.60
2022-08-03T03:24:42.927Z,13.70
2022-08-03T03:34:49.163Z,14.30
2022-08-03T03:44:54.998Z,12.60
2022-08-03T03:55:01.552Z,14.30
2022-08-03T04:05:27.056Z,14.30
2022-08-03T04:15:35.014Z,12.30
2022-08-03T04:25:43.929Z,12.00
2022-08-03T04:36:01.010Z,10.60
2022-08-03T04:46:09.392Z,10.00
2022-08-03T04:56:15.341Z,9.70
2022-08-03T05:06:20.949Z,9.20
2022-08-03T05:16:31.012Z,9.70
2022-08-03T05:26:37.436Z,8.80
2022-08-03T05:36:43.292Z,9.70
2022-08-03T05:46:49.541Z,8.30
2022-08-03T05:56:55.263Z,8.40
2022-08-03T06:07:00.890Z,7.00
2022-08-03T06:17:06.561Z,5.90
2022-08-03T06:27:13.035Z,5.30
2022-08-03T06:47:23.205Z,5.10
2022-08-03T06:57:29.072Z,3.60
2022-08-03T07:07:34.913Z,2.60
2022-08-03T07:17:40.878Z,2.30
2022-08-03T07:27:51.789Z,8.60
2022-08-03T07:37:57.578Z,1.70
2022-08-03T07:48:06.406Z,2.00
2022-08-03T07:58:22.047Z,2.10
2022-08-03T08:08:29.858Z,1.80
2022-08-03T08:18:35.655Z,1.20
2022-08-03T08:28:41.515Z,1.90
2022-08-03T08:38:47.295Z,1.60
2022-08-03T08:48:54.776Z,2.10
2022-08-03T08:59:02.914Z,2.10
2022-08-03T09:09:10.125Z,2.30
2022-08-03T09:19:37.373Z,2.70
2022-08-03T09:29:43.346Z,3.00
2022-08-03T09:39:49.776Z,3.60
2022-08-03T09:50:02.205Z,2.70
2022-08-03T10:00:13.428Z,3.20
2022-08-03T10:10:30.036Z,3.20
2022-08-03T10:20:42.498Z,2.90
2022-08-03T10:30:51.992Z,3.20
2022-08-03T10:40:59.355Z,3.50
2022-08-03T10:51:07.591Z,3.00
2022-08-03T11:01:14.692Z,2.50
2022-08-03T11:11:29.974Z,2.80
2022-08-03T11:22:04.537Z,3.20
2022-08-03T11:32:10.519Z,3.20
2022-08-03T11:42:47.342Z,3.40
2022-08-03T11:52:53.193Z,3.50
2022-08-03T12:03:04.905Z,3.20
2022-08-03T12:13:56.855Z,3.30
2022-08-03T12:23:38.014Z,4.00
2022-08-03T12:34:02.802Z,4.30
2022-08-03T12:44:10.486Z,3.60
2022-08-03T12:54:24.995Z,3.30
2022-08-03T13:04:33.318Z,4.10
2022-08-03T13:14:39.620Z,3.90
2022-08-03T13:24:46.750Z,4.40
2022-08-03T13:34:52.787Z,4.10
2022-08-03T13:44:58.608Z,4.00
2022-08-03T13:55:06.001Z,3.90
2022-08-03T14:05:12.533Z,4.60
2022-08-03T14:15:18.357Z,4.40
2022-08-03T14:25:24.007Z,4.20
2022-08-03T14:35:29.749Z,4.80
2022-08-03T14:45:35.541Z,4.30
2022-08-03T14:55:49.762Z,4.20
2022-08-03T15:05:58.045Z,3.70
2022-08-03T15:16:03.694Z,3.80
2022-08-03T15:26:33.047Z,4.00
2022-08-03T15:36:35.897Z,4.10
2022-08-03T15:46:41.680Z,5.20
2022-08-03T15:56:47.547Z,4.80
2022-08-03T16:06:53.402Z,3.90
2022-08-03T16:16:59.173Z,4.80
2022-08-03T16:27:05.058Z,3.70
2022-08-03T16:37:37.133Z,3.80
2022-08-03T16:47:40.501Z,4.30
2022-08-03T16:57:58.529Z,4.50
2022-08-03T17:08:09.014Z,4.70
2022-08-03T17:18:21.926Z,4.00
2022-08-03T17:28:49.151Z,4.00
2022-08-03T17:38:57.304Z,4.10
2022-08-03T17:49:04.059Z,4.60
2022-08-03T17:59:51.413Z,5.70
2022-08-03T18:10:10.849Z,6.60
2022-08-03T18:20:34.246Z,6.30
2022-08-03T18:30:53.374Z,11.10
2022-08-03T18:41:00.926Z,7.80
2022-08-03T18:51:11.889Z,9.50
2022-08-03T19:01:57.753Z,8.70
2022-08-03T19:12:31.207Z,11.20
2022-08-03T19:22:39.730Z,9.70
2022-08-03T19:32:52.448Z,9.00
2022-08-03T19:43:02.829Z,9.60
2022-08-03T19:53:11.958Z,10.70
2022-08-03T20:03:23.335Z,11.00
2022-08-03T20:13:31.998Z,10.90
2022-08-03T20:24:01.646Z,12.60
2022-08-03T20:34:09.612Z,11.40
2022-08-03T20:44:16.081Z,10.80
2022-08-03T20:54:30.651Z,11.40
2022-08-03T21:04:37.611Z,10.80
2022-08-03T21:14:57.525Z,11.50
2022-08-03T21:25:07.329Z,10.30
2022-08-03T21:35:14.104Z,10.80
2022-08-03T21:45:19.940Z,9.70
2022-08-03T21:55:30.071Z,10.60
2022-08-03T22:05:43.469Z,11.00
2022-08-03T22:15:50.808Z,11.10
2022-08-03T22:25:59.885Z,10.70
2022-08-03T22:36:08.076Z,11.20
2022-08-03T22:56:24.995Z,10.30
2022-08-03T23:06:35.956Z,11.80
2022-08-03T23:16:43.544Z,11.60
2022-08-03T23:26:51.774Z,11.40
2022-08-03T23:47:01.999Z,11.20
2022-08-03T23:57:19.990Z,11.20
